createdAt,value
2022-10-05T00:01:00.901Z,99510.72
2022-10-05T00:03:37.101Z,99495.56
2022-10-05T00:06:11.495Z,99491.59
2022-10-05T00:08:45.243Z,99475.41
2022-10-05T00:11:18.708Z,99475.72
2022-10-05T00:13:53.020Z,99473.09
2022-10-05T00:16:28.234Z,99480.63
2022-10-05T00:19:01.711Z,99464.63
2022-10-05T00:21:34.886Z,99470.66
2022-10-05T00:24:11.180Z,99465.81
2022-10-05T00:26:45.162Z,99467.75
2022-10-05T00:29:22.737Z,99465.81
2022-10-05T00:31:57.777Z,99462.47
2022-10-05T00:34:30.676Z,99450.31
2022-10-05T00:37:04.334Z,99447.16
2022-10-05T00:39:40.605Z,99444.59
2022-10-05T00:42:29.924Z,99449.84
2022-10-05T00:45:09.260Z,99444.47
2022-10-05T00:47:59.297Z,99449.28
2022-10-05T00:50:49.000Z,99449.25
2022-10-05T00:53:35.089Z,99428.00
2022-10-05T00:56:19.901Z,99426.94
2022-10-05T00:59:00.918Z,99431.16
2022-10-05T01:01:40.444Z,99421.78
2022-10-05T01:04:22.399Z,99422.34
2022-10-05T01:07:05.373Z,99426.50
2022-10-05T01:09:46.960Z,99422.66
2022-10-05T01:12:28.586Z,99420.25
2022-10-05T01:15:09.394Z,99411.06
2022-10-05T01:17:48.651Z,99411.72
2022-10-05T01:20:33.026Z,99411.66
2022-10-05T01:23:25.577Z,99400.22
2022-10-05T01:26:18.291Z,99400.31
2022-10-05T01:29:01.888Z,99386.28
2022-10-05T01:31:43.558Z,99399.63
2022-10-05T01:34:30.769Z,99389.97
2022-10-05T01:37:13.060Z,99387.47
2022-10-05T01:39:55.513Z,99380.25
2022-10-05T01:42:41.423Z,99367.81
2022-10-05T01:45:24.410Z,99360.22
2022-10-05T01:48:06.508Z,99359.66
2022-10-05T01:50:52.796Z,99361.81
2022-10-05T01:53:46.603Z,99360.47
2022-10-05T01:56:31.738Z,99352.25
2022-10-05T01:59:18.409Z,99342.34
2022-10-05T02:02:00.219Z,99349.16
2022-10-05T02:07:38.425Z,99339.38
2022-10-05T02:10:20.777Z,99334.34
2022-10-05T02:13:00.874Z,99329.47
2022-10-05T02:15:42.248Z,99333.53
2022-10-05T02:18:22.908Z,99326.38
2022-10-05T02:21:00.224Z,99333.28
2022-10-05T02:23:39.685Z,99322.44
2022-10-05T02:26:14.320Z,99333.22
2022-10-05T02:28:53.950Z,99331.63
2022-10-05T02:31:32.404Z,99323.41
2022-10-05T02:34:28.828Z,99308.97
2022-10-05T02:37:18.781Z,99307.47
2022-10-05T02:40:14.367Z,99292.34
2022-10-05T02:42:58.162Z,99284.50
2022-10-05T02:45:43.125Z,99286.81
2022-10-05T02:48:27.681Z,99278.41
2022-10-05T02:51:10.090Z,99254.88
2022-10-05T02:53:52.309Z,99265.97
2022-10-05T02:56:33.474Z,99252.41
2022-10-05T02:59:16.361Z,99256.56
2022-10-05T03:01:53.940Z,99249.06
2022-10-05T03:04:38.084Z,99248.91
2022-10-05T03:07:19.188Z,99238.31
2022-10-05T03:10:03.052Z,99232.25
2022-10-05T03:12:51.236Z,99227.94
2022-10-05T03:15:45.138Z,99225.41
2022-10-05T03:18:30.785Z,99217.28
2022-10-05T03:21:14.518Z,99219.06
2022-10-05T03:24:06.415Z,99212.16
2022-10-05T03:26:48.615Z,99212.63
2022-10-05T03:29:29.549Z,99214.22
2022-10-05T03:32:14.965Z,99208.81
2022-10-05T03:34:55.472Z,99210.56
2022-10-05T03:37:38.209Z,99210.94
2022-10-05T03:40:27.804Z,99199.34
2022-10-05T03:43:13.604Z,99204.16
2022-10-05T03:45:53.308Z,99177.78
2022-10-05T03:48:35.001Z,99173.28
2022-10-05T03:51:14.823Z,99171.72
2022-10-05T03:53:54.752Z,99165.72
2022-10-05T03:56:37.002Z,99156.31
2022-10-05T03:59:18.732Z,99139.94
2022-10-05T04:01:59.155Z,99141.75
2022-10-05T04:04:38.031Z,99138.94
2022-10-05T04:07:28.925Z,99152.56
2022-10-05T04:10:05.272Z,99140.75
2022-10-05T04:12:44.220Z,99134.44
2022-10-05T04:15:25.304Z,99123.56
2022-10-05T04:18:05.120Z,99110.56
2022-10-05T04:20:44.427Z,99110.56
2022-10-05T04:23:24.155Z,99098.75
2022-10-05T04:26:05.538Z,99095.94
2022-10-05T04:28:47.615Z,99089.44
2022-10-05T04:31:37.282Z,99085.13
2022-10-05T04:34:22.854Z,99091.91
2022-10-05T04:37:01.818Z,99089.75
2022-10-05T04:39:44.425Z,99083.44
2022-10-05T04:42:31.081Z,99079.34
2022-10-05T04:45:13.440Z,99062.88
2022-10-05T04:48:00.978Z,99059.84
2022-10-05T04:50:49.171Z,99057.59
2022-10-05T04:53:32.005Z,99045.31
2022-10-05T04:56:12.127Z,99056.84
2022-10-05T04:59:07.469Z,99055.59
2022-10-05T05:02:06.857Z,99052.19
2022-10-05T05:05:06.057Z,99047.22
2022-10-05T05:07:49.676Z,99041.72
2022-10-05T05:10:55.282Z,99031.66
2022-10-05T05:14:08.309Z,99029.25
2022-10-05T05:16:45.063Z,99025.03
2022-10-05T05:19:35.118Z,99010.81
2022-10-05T05:22:18.764Z,99008.78
2022-10-05T05:25:13.736Z,99004.72
2022-10-05T05:27:55.100Z,98997.34
2022-10-05T05:30:39.781Z,99002.66
2022-10-05T05:33:22.017Z,98996.78
2022-10-05T05:36:23.466Z,98979.53
2022-10-05T05:39:13.121Z,98981.34
2022-10-05T05:41:53.294Z,98983.13
2022-10-05T05:44:28.941Z,98980.75
2022-10-05T05:47:05.541Z,98979.69
2022-10-05T05:49:51.442Z,98977.94
2022-10-05T05:52:32.860Z,98978.59
2022-10-05T05:55:14.946Z,98971.47
2022-10-05T05:57:54.842Z,98977.69
2022-10-05T06:00:35.818Z,98975.91
2022-10-05T06:03:18.240Z,98975.06
2022-10-05T06:05:55.736Z,98975.13
2022-10-05T06:08:37.741Z,98982.75
2022-10-05T06:11:17.332Z,98974.81
2022-10-05T06:13:52.041Z,98984.09
2022-10-05T06:16:31.242Z,98972.28
2022-10-05T06:19:10.725Z,98972.03
2022-10-05T06:21:52.004Z,98979.28
2022-10-05T06:24:32.926Z,98979.47
2022-10-05T06:27:27.695Z,98986.44
2022-10-05T06:30:08.065Z,98989.69
2022-10-05T06:33:03.135Z,98982.63
2022-10-05T06:35:53.606Z,99009.63
2022-10-05T06:38:45.641Z,99027.53
2022-10-05T06:41:31.506Z,99014.28
2022-10-05T06:44:14.274Z,99012.88
2022-10-05T06:46:57.735Z,99004.31
2022-10-05T06:49:36.203Z,99009.53
2022-10-05T06:52:21.303Z,99034.06
2022-10-05T06:55:15.091Z,99014.28
2022-10-05T06:58:03.566Z,99019.88
2022-10-05T07:00:42.241Z,99022.28
2022-10-05T07:03:28.935Z,99029.94
2022-10-05T07:06:17.715Z,99025.22
2022-10-05T07:09:07.713Z,99015.19
2022-10-05T07:12:03.661Z,99016.66
2022-10-05T07:14:55.052Z,99005.00
2022-10-05T07:17:45.790Z,99009.47
2022-10-05T07:20:27.751Z,99015.69
2022-10-05T07:23:28.876Z,99019.69
2022-10-05T07:26:07.193Z,98999.59
2022-10-05T07:28:48.738Z,98998.44
2022-10-05T07:31:30.672Z,98984.63
2022-10-05T07:34:09.205Z,99006.38
2022-10-05T07:37:07.205Z,98999.47
2022-10-05T07:40:00.270Z,99012.94
2022-10-05T07:42:51.573Z,99014.34
2022-10-05T07:45:30.359Z,99018.75
2022-10-05T07:48:11.999Z,99019.78
2022-10-05T07:50:57.876Z,99026.97
2022-10-05T07:53:38.100Z,99018.31
2022-10-05T07:56:16.929Z,99005.53
2022-10-05T07:58:55.790Z,99005.53
2022-10-05T08:01:31.313Z,99007.31
2022-10-05T08:04:12.631Z,99012.59
2022-10-05T08:06:51.833Z,99026.94
2022-10-05T08:09:38.134Z,99059.16
2022-10-05T08:12:27.130Z,99055.34
2022-10-05T08:15:06.473Z,99064.38
2022-10-05T08:17:52.177Z,99079.16
2022-10-05T08:20:43.917Z,99069.06
2022-10-05T08:23:25.204Z,99075.53
2022-10-05T08:26:13.816Z,99066.31
2022-10-05T08:28:54.623Z,99064.19
2022-10-05T08:31:31.910Z,99077.56
2022-10-05T08:34:21.067Z,99094.34
2022-10-05T08:37:01.602Z,99091.63
2022-10-05T08:39:40.788Z,99089.13
2022-10-05T08:42:40.896Z,99103.38
2022-10-05T08:45:48.793Z,99110.72
2022-10-05T09:26:44.869Z,99138.28
2022-10-05T09:29:40.602Z,99133.50
2022-10-05T09:32:58.684Z,99129.00
2022-10-05T09:36:13.575Z,99124.78
2022-10-05T09:39:14.397Z,99138.00
2022-10-05T09:42:28.519Z,99156.31
2022-10-05T09:45:29.616Z,99161.28
2022-10-05T09:48:50.507Z,99180.03
2022-10-05T09:52:05.882Z,99188.84
2022-10-05T09:55:16.054Z,99194.22
2022-10-05T09:58:34.616Z,99217.25
2022-10-05T10:01:39.280Z,99207.44
2022-10-05T10:04:47.914Z,99212.09
2022-10-05T10:07:43.566Z,99218.50
2022-10-05T10:10:54.710Z,99233.28
2022-10-05T10:13:56.863Z,99234.78
2022-10-05T10:17:08.208Z,99219.53
2022-10-05T10:20:13.667Z,99225.38
2022-10-05T10:23:08.986Z,99238.28
2022-10-05T10:26:12.465Z,99256.53
2022-10-05T10:29:21.720Z,99258.03
2022-10-05T10:32:12.911Z,99267.75
2022-10-05T10:35:23.214Z,99265.53
2022-10-05T10:38:32.808Z,99276.19
2022-10-05T10:41:51.473Z,99298.53
2022-10-05T10:45:02.513Z,99284.97
2022-10-05T10:47:45.249Z,99289.78
2022-10-05T10:51:13.589Z,99297.84
2022-10-05T10:54:29.703Z,99293.81
2022-10-05T10:57:08.016Z,99288.59
2022-10-05T11:00:20.363Z,99297.56
2022-10-05T11:03:28.444Z,99310.03
2022-10-05T11:06:27.086Z,99316.50
2022-10-05T11:09:32.768Z,99316.56
2022-10-05T11:12:53.005Z,99328.78
2022-10-05T11:15:48.488Z,99323.63
2022-10-05T11:18:35.917Z,99326.00
2022-10-05T11:21:30.337Z,99323.53
2022-10-05T11:24:39.787Z,99317.66
2022-10-05T11:27:26.460Z,99313.13
2022-10-05T11:30:28.562Z,99332.03
2022-10-05T11:33:29.204Z,99342.91
2022-10-05T11:36:44.159Z,99354.06
2022-10-05T11:39:41.523Z,99366.03
2022-10-05T11:42:49.628Z,99374.38
2022-10-05T11:45:36.193Z,99385.16
2022-10-05T11:48:36.294Z,99387.88
2022-10-05T11:51:35.705Z,99400.94
2022-10-05T11:54:26.914Z,99399.53
2022-10-05T17:10:17.459Z,99896.53
2022-10-05T17:13:05.029Z,99847.44
2022-10-05T17:15:53.636Z,99866.94
2022-10-05T17:18:34.145Z,99894.84
2022-10-05T17:21:14.395Z,99908.44
2022-10-05T17:23:55.691Z,99920.38
2022-10-05T17:27:04.410Z,99921.91
2022-10-05T17:29:52.154Z,99926.03
2022-10-05T17:32:39.543Z,99934.41
2022-10-05T17:35:40.772Z,99934.91
2022-10-05T17:38:22.366Z,99945.56
2022-10-05T17:41:17.063Z,99953.91
2022-10-05T17:44:25.903Z,99958.78
2022-10-05T17:47:03.951Z,99972.41
2022-10-05T17:50:09.128Z,99987.00
2022-10-05T17:53:02.478Z,99997.88
2022-10-05T17:55:44.770Z,100011.06
2022-10-05T17:59:04.185Z,100024.47
2022-10-05T18:01:39.314Z,100029.38
2022-10-05T18:04:39.505Z,100034.59
2022-10-05T18:07:24.818Z,100049.59
2022-10-05T18:10:17.306Z,100047.84
2022-10-05T18:13:19.699Z,100055.56
2022-10-05T18:15:52.549Z,100062.50
2022-10-05T18:18:59.066Z,100081.41
2022-10-05T18:21:49.518Z,100081.41
2022-10-05T18:24:43.589Z,100088.53
2022-10-05T18:27:36.804Z,100089.31
2022-10-05T18:30:21.491Z,100095.09
2022-10-05T18:33:38.854Z,100100.28
2022-10-05T18:36:29.012Z,100107.53
2022-10-05T18:39:15.281Z,100107.78
2022-10-05T18:41:59.529Z,100123.16
2022-10-05T18:44:40.570Z,100132.38
2022-10-05T18:47:21.188Z,100139.78
2022-10-05T18:50:06.095Z,100141.13
2022-10-05T18:52:54.482Z,100145.25
2022-10-05T18:55:34.154Z,100152.84
2022-10-05T18:58:22.802Z,100151.50
2022-10-05T19:01:18.423Z,100170.13
2022-10-05T19:04:04.865Z,100189.69
2022-10-05T19:06:52.578Z,100227.66
2022-10-05T19:09:47.373Z,100228.38
2022-10-05T19:12:31.338Z,100233.56
2022-10-05T19:15:17.816Z,100237.41
2022-10-05T19:18:14.186Z,100246.06
2022-10-05T19:20:55.661Z,100242.06
2022-10-05T19:23:57.996Z,100250.28
2022-10-05T19:26:50.351Z,100247.94
2022-10-05T19:29:41.281Z,100246.59
2022-10-05T19:32:24.009Z,100244.47
2022-10-05T19:35:10.087Z,100242.38
2022-10-05T19:37:53.017Z,100249.31
2022-10-05T19:40:34.929Z,100261.84
2022-10-05T19:43:25.616Z,100260.91
2022-10-05T19:46:14.079Z,100265.59
2022-10-05T19:48:53.480Z,100268.31
2022-10-05T19:51:30.813Z,100270.72
2022-10-05T19:54:16.011Z,100277.66
2022-10-05T19:56:52.943Z,100289.44
2022-10-05T19:59:31.714Z,100298.66
2022-10-05T20:02:06.857Z,100306.25
2022-10-05T20:04:44.299Z,100303.34
2022-10-05T20:07:21.640Z,100328.81
2022-10-05T20:09:59.052Z,100332.75
2022-10-05T20:12:51.322Z,100350.31
2022-10-05T20:15:44.767Z,100349.84
2022-10-05T20:18:57.597Z,100355.94
2022-10-05T20:21:39.333Z,100366.34
2022-10-05T20:24:14.825Z,100374.25
2022-10-05T20:27:16.215Z,100370.31
2022-10-05T20:29:51.080Z,100386.38
2022-10-05T20:32:29.797Z,100385.50
2022-10-05T20:35:07.328Z,100383.06
2022-10-05T20:37:41.801Z,100389.09
2022-10-05T20:40:15.732Z,100389.81
2022-10-05T20:42:50.842Z,100407.94
2022-10-05T20:45:24.390Z,100405.41
2022-10-05T20:47:58.198Z,100417.59
2022-10-05T20:50:33.172Z,100427.56
2022-10-05T20:53:11.590Z,100438.34
2022-10-05T20:55:45.800Z,100438.50
2022-10-05T20:58:19.428Z,100445.97
2022-10-05T21:01:10.637Z,100455.72
2022-10-05T21:03:44.460Z,100464.31
2022-10-05T21:06:21.327Z,100462.53
2022-10-05T21:08:54.668Z,100466.78
2022-10-05T21:11:29.018Z,100475.47
2022-10-05T21:14:05.709Z,100479.59
2022-10-05T21:16:41.063Z,100492.00
2022-10-05T21:19:15.330Z,100495.97
2022-10-05T21:21:50.507Z,100512.72
2022-10-05T21:27:02.767Z,100524.44
2022-10-05T21:29:37.255Z,100538.03
2022-10-05T21:32:12.062Z,100541.00
2022-10-05T21:34:45.020Z,100558.53
2022-10-05T21:37:20.316Z,100561.25
2022-10-05T21:39:54.106Z,100575.38
2022-10-05T21:42:29.591Z,100575.53
2022-10-05T21:45:03.209Z,100575.50
2022-10-05T21:47:37.062Z,100584.88
2022-10-05T21:50:10.990Z,100587.41
2022-10-05T21:52:45.140Z,100583.84
2022-10-05T21:55:19.673Z,100590.53
2022-10-05T21:57:54.051Z,100595.50
2022-10-05T22:00:27.669Z,100601.53
2022-10-05T22:03:00.492Z,100602.53
2022-10-05T22:05:34.145Z,100627.19
2022-10-05T22:08:08.390Z,100620.75
2022-10-05T22:10:41.190Z,100625.16
2022-10-05T22:13:17.947Z,100630.00
2022-10-05T22:15:50.939Z,100632.56
2022-10-05T22:18:26.240Z,100635.97
2022-10-05T22:21:00.194Z,100627.66
2022-10-05T22:23:36.269Z,100636.94
2022-10-05T22:26:12.047Z,100634.81
2022-10-05T22:28:48.870Z,100638.53
2022-10-05T22:31:22.371Z,100647.66
2022-10-05T22:33:56.539Z,100651.78
2022-10-05T22:36:30.380Z,100648.22
2022-10-05T22:39:03.264Z,100651.78
2022-10-05T22:41:36.911Z,100653.09
2022-10-05T22:44:12.436Z,100654.84
2022-10-05T22:46:47.361Z,100660.41
2022-10-05T22:49:20.708Z,100669.44
2022-10-05T22:51:54.803Z,100673.69
2022-10-05T22:54:30.492Z,100673.19
2022-10-05T22:57:06.425Z,100671.63
2022-10-05T22:59:40.726Z,100680.97
2022-10-05T23:02:14.851Z,100682.34
2022-10-05T23:04:48.761Z,100684.69
2022-10-05T23:07:21.586Z,100680.81
2022-10-05T23:09:54.594Z,100699.69
2022-10-05T23:12:27.352Z,100701.91
2022-10-05T23:15:02.580Z,100710.59
2022-10-05T23:17:39.144Z,100702.28
2022-10-05T23:20:12.952Z,100707.16
2022-10-05T23:22:45.813Z,100713.28
2022-10-05T23:25:19.808Z,100721.78
2022-10-05T23:27:53.577Z,100725.38
2022-10-05T23:30:28.953Z,100724.66
2022-10-05T23:33:02.675Z,100737.41
2022-10-05T23:35:36.446Z,100744.88
2022-10-05T23:38:09.540Z,100751.84
2022-10-05T23:40:47.481Z,100759.66
2022-10-05T23:43:21.186Z,100759.44
2022-10-05T23:45:56.505Z,100753.38
2022-10-05T23:48:31.138Z,100767.47
2022-10-05T23:51:05.338Z,100763.69
2022-10-05T23:53:39.437Z,100767.47
2022-10-05T23:56:13.684Z,100770.34
2022-10-05T23:58:46.519Z,100770.53
